Time;durP1;ratioP1;P1;durP2;ratioP2;P2;SDS_P1;SDS_P2;PMS_P1;PMS_P2;Temp;Humidity;BMP_temperature;BMP_pressure;BME280_temperature;BME280_humidity;BME280_pressure;Samples;Min_cycle;Max_cycle;Signal;HPM_P1;HPM_P2
2021/12/18 00:01:46;;;;;;;12.27;6.97;;;;;;;;;;723496;188;919177;-66
2021/12/18 00:04:12;;;;;;;15.60;6.55;;;;;;;;;;728757;189;919299;-64
2021/12/18 00:06:38;;;;;;;10.60;4.73;;;;;;;;;;735979;189;918644;-66
2021/12/18 00:09:04;;;;;;;17.17;5.57;;;;;;;;;;727926;189;919869;-65
2021/12/18 00:11:30;;;;;;;17.77;7.57;;;;;;;;;;733959;189;919428;-66
2021/12/18 00:13:56;;;;;;;5.10;3.53;;;;;;;;;;733308;190;927662;-66
2021/12/18 00:16:22;;;;;;;7.27;4.70;;;;;;;;;;723819;189;920585;-66
2021/12/18 00:18:50;;;;;;;16.77;6.77;;;;;;;;;;720799;189;919300;-65
2021/12/18 00:21:17;;;;;;;15.30;5.87;;;;;;;;;;728114;186;920094;-66
2021/12/18 00:23:39;;;;;;;13.20;6.27;;;;;;;;;;730969;189;917998;-66
2021/12/18 00:26:05;;;;;;;7.83;4.67;;;;;;;;;;722618;189;918730;-66
2021/12/18 00:28:31;;;;;;;19.73;7.73;;;;;;;;;;733808;189;915460;-64
2021/12/18 00:30:57;;;;;;;12.75;6.60;;;;;;;;;;725038;189;917961;-65
2021/12/18 00:33:23;;;;;;;16.77;6.90;;;;;;;;;;723419;189;918809;-65
2021/12/18 00:35:48;;;;;;;16.03;7.33;;;;;;;;;;724910;192;919100;-66
2021/12/18 00:38:14;;;;;;;13.93;6.33;;;;;;;;;;739580;189;921146;-66
2021/12/18 00:40:46;;;;;;;15.50;5.20;;;;;;;;;;720302;190;920929;-66
2021/12/18 00:43:22;;;;;;;9.63;5.65;;;;;;;;;;718384;193;919169;-66
2021/12/18 00:45:34;;;;;;;15.33;6.43;;;;;;;;;;721674;193;919208;-66
2021/12/18 00:48:00;;;;;;;10.57;5.90;;;;;;;;;;722965;189;919493;-66
2021/12/18 00:50:25;;;;;;;29.37;8.60;;;;;;;;;;718929;189;920236;-65
2021/12/18 00:52:51;;;;;;;15.90;8.17;;;;;;;;;;726081;189;919374;-66
2021/12/18 00:55:19;;;;;;;19.70;6.87;;;;;;;;;;729197;189;919822;-65
2021/12/18 00:57:45;;;;;;;15.40;5.77;;;;;;;;;;735661;187;919338;-66
2021/12/18 01:00:09;;;;;;;13.47;6.53;;;;;;;;;;733157;190;919218;-66
2021/12/18 01:02:36;;;;;;;19.00;7.97;;;;;;;;;;728165;189;919449;-65
2021/12/18 01:05:01;;;;;;;16.13;6.83;;;;;;;;;;720444;189;919084;-65
2021/12/18 01:07:27;;;;;;;23.17;7.10;;;;;;;;;;723140;189;919288;-65
2021/12/18 01:12:39;;;;;;;14.43;8.27;;;;;;;;;;715429;192;919279;-65
2021/12/18 01:15:12;;;;;;;17.85;8.30;;;;;;;;;;737255;189;919290;-67
2021/12/18 01:22:45;;;;;;;15.80;6.23;;;;;;;;;;730991;189;919184;-66
2021/12/18 01:25:07;;;;;;;16.83;6.13;;;;;;;;;;727253;189;919924;-66
2021/12/18 01:27:32;;;;;;;24.60;7.23;;;;;;;;;;732888;189;919481;-67
2021/12/18 01:29:58;;;;;;;12.83;6.30;;;;;;;;;;733623;189;919012;-65
2021/12/18 01:32:25;;;;;;;15.03;8.67;;;;;;;;;;738129;186;918790;-65
2021/12/18 01:34:50;;;;;;;13.50;6.62;;;;;;;;;;736601;189;918747;-64
2021/12/18 01:37:16;;;;;;;11.40;7.57;;;;;;;;;;719046;190;920039;-66
2021/12/18 01:39:42;;;;;;;12.17;5.13;;;;;;;;;;738604;189;919414;-66
2021/12/18 01:42:41;;;;;;;14.93;6.30;;;;;;;;;;731301;189;919382;-66
2021/12/18 01:44:56;;;;;;;11.17;5.17;;;;;;;;;;716923;190;941866;-67
2021/12/18 01:54:41;;;;;;;10.47;6.17;;;;;;;;;;719331;189;1022113;-66
2021/12/18 01:57:07;;;;;;;13.60;5.63;;;;;;;;;;729467;189;919011;-66
2021/12/18 01:59:34;;;;;;;16.17;7.27;;;;;;;;;;725589;192;919209;-65
2021/12/18 02:02:00;;;;;;;30.80;10.10;;;;;;;;;;732498;189;919398;-66
2021/12/18 02:04:26;;;;;;;16.00;7.57;;;;;;;;;;720179;190;919483;-65
2021/12/18 02:06:52;;;;;;;16.67;7.45;;;;;;;;;;730727;186;1021305;-66
2021/12/18 02:09:19;;;;;;;16.37;8.47;;;;;;;;;;731741;191;1022144;-66
2021/12/18 02:11:43;;;;;;;22.17;9.13;;;;;;;;;;725778;189;615015;-66
2021/12/18 02:14:34;;;;;;;20.12;8.52;;;;;;;;;;725733;189;919230;-66
2021/12/18 02:21:39;;;;;;;11.77;5.97;;;;;;;;;;726676;189;1021109;-66
2021/12/18 02:24:05;;;;;;;22.90;8.90;;;;;;;;;;734215;189;922629;-66
2021/12/18 02:26:31;;;;;;;22.67;8.70;;;;;;;;;;734770;189;919490;-66
2021/12/18 02:28:59;;;;;;;29.30;10.77;;;;;;;;;;723425;190;919666;-66
2021/12/18 02:31:22;;;;;;;23.43;8.37;;;;;;;;;;732749;189;918877;-66
2021/12/18 02:33:48;;;;;;;15.60;7.60;;;;;;;;;;725992;190;919363;-65
2021/12/18 02:36:22;;;;;;;13.70;5.60;;;;;;;;;;728976;189;919505;-66
2021/12/18 02:38:58;;;;;;;22.27;8.23;;;;;;;;;;721574;189;918416;-66
2021/12/18 02:41:23;;;;;;;23.30;7.87;;;;;;;;;;721005;189;919490;-66
2021/12/18 02:43:37;;;;;;;18.63;8.53;;;;;;;;;;722276;190;1020042;-66
2021/12/18 02:46:06;;;;;;;13.20;6.60;;;;;;;;;;725651;190;942115;-65
2021/12/18 02:48:29;;;;;;;20.37;10.73;;;;;;;;;;716418;190;918912;-66
2021/12/18 02:50:56;;;;;;;20.23;9.93;;;;;;;;;;724744;190;920165;-66
2021/12/18 02:53:21;;;;;;;15.70;7.83;;;;;;;;;;724470;189;919703;-65
2021/12/18 02:55:47;;;;;;;21.43;9.70;;;;;;;;;;721535;190;920643;-67
2021/12/18 02:58:13;;;;;;;17.93;8.37;;;;;;;;;;724433;189;920819;-65
2021/12/18 03:00:39;;;;;;;21.20;8.70;;;;;;;;;;727401;189;919586;-66
2021/12/18 03:03:09;;;;;;;16.00;8.30;;;;;;;;;;732084;189;919811;-66
2021/12/18 03:05:37;;;;;;;24.40;8.83;;;;;;;;;;734311;189;918114;-66
2021/12/18 03:08:06;;;;;;;15.77;8.43;;;;;;;;;;737672;189;918546;-65
2021/12/18 03:23:31;;;;;;;20.53;12.07;;;;;;;;;;728646;192;919171;-66
2021/12/18 03:25:44;;;;;;;19.83;8.50;;;;;;;;;;726191;186;1024973;-65
2021/12/18 03:28:08;;;;;;;27.77;9.37;;;;;;;;;;729727;189;919178;-66
2021/12/18 03:30:34;;;;;;;18.23;7.53;;;;;;;;;;735726;189;919169;-66
2021/12/18 03:33:00;;;;;;;26.57;9.67;;;;;;;;;;726870;189;919584;-66
2021/12/18 03:35:26;;;;;;;15.02;7.47;;;;;;;;;;718959;189;919625;-66
2021/12/18 03:37:52;;;;;;;15.97;8.43;;;;;;;;;;722094;189;932185;-65
2021/12/18 03:40:18;;;;;;;13.90;8.70;;;;;;;;;;730783;189;920060;-65
2021/12/18 03:42:43;;;;;;;22.60;9.03;;;;;;;;;;735045;189;919204;-65
2021/12/18 03:45:09;;;;;;;17.33;7.50;;;;;;;;;;731370;189;926144;-66
2021/12/18 03:47:35;;;;;;;13.73;8.73;;;;;;;;;;732779;189;919775;-65
2021/12/18 03:50:01;;;;;;;17.70;9.33;;;;;;;;;;719583;190;919546;-66
2021/12/18 03:52:27;;;;;;;16.30;6.47;;;;;;;;;;721489;189;1124383;-66
2021/12/18 03:54:53;;;;;;;16.47;7.10;;;;;;;;;;731859;189;920779;-66
2021/12/18 03:57:18;;;;;;;17.87;9.53;;;;;;;;;;732769;189;919463;-66
2021/12/18 03:59:44;;;;;;;18.33;8.47;;;;;;;;;;732668;189;920464;-66
2021/12/18 04:02:11;;;;;;;22.23;10.07;;;;;;;;;;728738;189;919549;-62
2021/12/18 04:04:37;;;;;;;33.20;18.87;;;;;;;;;;731747;189;920728;-66
2021/12/18 04:07:03;;;;;;;19.27;9.93;;;;;;;;;;723622;191;922301;-65
2021/12/18 04:09:30;;;;;;;21.10;10.10;;;;;;;;;;717032;189;920519;-67
2021/12/18 04:11:54;;;;;;;46.90;15.90;;;;;;;;;;728792;189;922516;-66
2021/12/18 04:14:20;;;;;;;25.80;14.10;;;;;;;;;;721451;189;913687;-65
2021/12/18 04:16:46;;;;;;;23.70;12.80;;;;;;;;;;717883;189;1019120;-66
2021/12/18 04:19:12;;;;;;;24.13;11.80;;;;;;;;;;732012;189;916801;-66
2021/12/18 04:21:38;;;;;;;24.57;12.60;;;;;;;;;;734894;186;917395;-66
2021/12/18 04:24:04;;;;;;;23.27;14.60;;;;;;;;;;729121;190;914309;-66
2021/12/18 04:26:30;;;;;;;24.23;11.93;;;;;;;;;;725532;190;916431;-66
2021/12/18 04:28:56;;;;;;;28.63;15.00;;;;;;;;;;721104;190;922515;-65
2021/12/18 04:31:22;;;;;;;20.95;12.65;;;;;;;;;;731146;189;919454;-65
2021/12/18 04:33:47;;;;;;;26.30;13.43;;;;;;;;;;726432;189;919581;-65
2021/12/18 04:36:13;;;;;;;15.57;7.93;;;;;;;;;;728251;189;919768;-65
2021/12/18 04:38:39;;;;;;;31.17;14.30;;;;;;;;;;732942;189;918972;-66
2021/12/18 04:41:06;;;;;;;30.43;14.90;;;;;;;;;;729026;189;919045;-66
2021/12/18 04:43:31;;;;;;;16.53;9.97;;;;;;;;;;729456;189;919784;-65
2021/12/18 04:45:57;;;;;;;25.87;11.70;;;;;;;;;;720010;189;1024329;-66
2021/12/18 04:48:22;;;;;;;24.43;11.30;;;;;;;;;;719160;189;919631;-66
2021/12/18 04:50:48;;;;;;;23.30;14.83;;;;;;;;;;721553;190;963078;-66
2021/12/18 04:53:14;;;;;;;22.67;14.20;;;;;;;;;;720578;190;919390;-66
2021/12/18 04:55:40;;;;;;;40.37;22.97;;;;;;;;;;727433;192;919322;-66
2021/12/18 04:58:06;;;;;;;39.63;27.03;;;;;;;;;;726916;190;918675;-66
2021/12/18 05:00:40;;;;;;;27.67;22.83;;;;;;;;;;734349;189;919633;-64
2021/12/18 05:03:05;;;;;;;30.70;22.50;;;;;;;;;;724787;189;918979;-67
2021/12/18 05:05:27;;;;;;;33.73;19.30;;;;;;;;;;728805;189;918573;-66
2021/12/18 05:07:53;;;;;;;25.40;17.60;;;;;;;;;;729254;189;919352;-66
2021/12/18 05:10:19;;;;;;;21.10;12.00;;;;;;;;;;732436;189;919415;-66
2021/12/18 05:12:45;;;;;;;35.23;22.20;;;;;;;;;;735729;189;919384;-67
2021/12/18 05:15:11;;;;;;;30.33;16.37;;;;;;;;;;740715;189;616899;-67
2021/12/18 05:17:36;;;;;;;44.47;25.17;;;;;;;;;;734907;187;632006;-66
2021/12/18 05:20:02;;;;;;;27.30;14.27;;;;;;;;;;735856;189;919743;-66
2021/12/18 05:22:28;;;;;;;25.93;13.90;;;;;;;;;;731957;186;626831;-66
2021/12/18 05:24:54;;;;;;;17.77;10.60;;;;;;;;;;738293;189;630286;-66
2021/12/18 05:27:20;;;;;;;20.50;9.70;;;;;;;;;;728584;190;639081;-66
2021/12/18 05:29:46;;;;;;;26.27;10.20;;;;;;;;;;726336;190;636311;-66
2021/12/18 05:32:12;;;;;;;17.27;10.20;;;;;;;;;;723566;190;919233;-66
2021/12/18 05:34:38;;;;;;;26.70;9.57;;;;;;;;;;720435;190;918906;-67
2021/12/18 05:39:35;;;;;;;40.30;17.95;;;;;;;;;;723041;189;918855;-67
2021/12/18 05:42:01;;;;;;;30.10;15.40;;;;;;;;;;734487;190;879578;-67
2021/12/18 05:44:27;;;;;;;19.53;11.23;;;;;;;;;;727865;189;919518;-67
2021/12/18 05:46:52;;;;;;;15.50;9.52;;;;;;;;;;721454;189;919118;-66
2021/12/18 05:49:18;;;;;;;18.77;11.43;;;;;;;;;;733634;189;918388;-66
2021/12/18 05:51:44;;;;;;;17.63;9.57;;;;;;;;;;725338;189;918728;-67
2021/12/18 05:54:10;;;;;;;18.33;9.73;;;;;;;;;;720300;189;919770;-66
2021/12/18 05:56:36;;;;;;;19.47;11.10;;;;;;;;;;724001;189;919297;-66
2021/12/18 05:59:02;;;;;;;18.83;10.90;;;;;;;;;;725143;189;919876;-66
2021/12/18 06:01:28;;;;;;;18.93;10.47;;;;;;;;;;722619;191;919489;-66
2021/12/18 06:03:53;;;;;;;21.47;10.50;;;;;;;;;;718543;190;920497;-67
2021/12/18 06:06:21;;;;;;;20.50;9.60;;;;;;;;;;729894;189;919112;-66
2021/12/18 06:08:45;;;;;;;25.37;10.10;;;;;;;;;;724268;189;919834;-67
2021/12/18 06:11:14;;;;;;;18.87;9.90;;;;;;;;;;729748;190;920193;-66
2021/12/18 06:13:37;;;;;;;20.00;10.23;;;;;;;;;;730760;190;919670;-66
2021/12/18 06:16:05;;;;;;;19.97;11.17;;;;;;;;;;726803;189;919380;-66
2021/12/18 06:18:29;;;;;;;21.47;10.73;;;;;;;;;;723042;189;919189;-67
2021/12/18 06:20:54;;;;;;;21.17;10.97;;;;;;;;;;732546;190;919601;-67
2021/12/18 06:23:20;;;;;;;26.47;11.03;;;;;;;;;;734221;189;921293;-66
2021/12/18 06:25:46;;;;;;;19.97;9.80;;;;;;;;;;723293;189;919682;-67
2021/12/18 06:28:12;;;;;;;21.00;10.00;;;;;;;;;;724921;189;918813;-66
2021/12/18 06:30:38;;;;;;;17.60;10.07;;;;;;;;;;743114;188;919745;-66
2021/12/18 06:33:04;;;;;;;22.63;9.50;;;;;;;;;;727833;189;918813;-65
2021/12/18 06:35:30;;;;;;;23.13;10.00;;;;;;;;;;733779;189;785280;-67
2021/12/18 06:37:56;;;;;;;18.10;10.07;;;;;;;;;;733367;189;918981;-66
2021/12/18 06:40:22;;;;;;;17.17;9.63;;;;;;;;;;722332;189;919358;-66
2021/12/18 06:42:47;;;;;;;25.53;13.30;;;;;;;;;;727439;189;918553;-66
2021/12/18 06:45:13;;;;;;;21.80;8.90;;;;;;;;;;735789;189;919559;-66
2021/12/18 06:47:41;;;;;;;22.37;10.37;;;;;;;;;;726204;189;918062;-67
2021/12/18 06:50:05;;;;;;;15.05;10.45;;;;;;;;;;723569;189;920234;-67
2021/12/18 06:52:31;;;;;;;16.93;10.03;;;;;;;;;;726848;189;918658;-66
2021/12/18 06:54:57;;;;;;;24.03;9.90;;;;;;;;;;731181;189;919545;-66
2021/12/18 06:57:22;;;;;;;19.30;9.20;;;;;;;;;;729341;189;941923;-66
2021/12/18 06:59:48;;;;;;;23.07;10.50;;;;;;;;;;731987;189;918938;-67
2021/12/18 07:02:14;;;;;;;22.47;9.83;;;;;;;;;;732227;189;920157;-66
2021/12/18 07:04:40;;;;;;;13.37;9.87;;;;;;;;;;732569;189;918280;-66
2021/12/18 07:07:06;;;;;;;19.40;9.77;;;;;;;;;;727018;189;927577;-67
2021/12/18 07:09:32;;;;;;;21.23;11.63;;;;;;;;;;732266;189;916196;-67
2021/12/18 07:11:58;;;;;;;20.30;9.83;;;;;;;;;;727483;189;919601;-67
2021/12/18 07:14:23;;;;;;;14.83;8.60;;;;;;;;;;726401;189;919491;-66
2021/12/18 07:16:49;;;;;;;12.37;7.57;;;;;;;;;;728716;189;923420;-66
2021/12/18 07:19:15;;;;;;;16.00;8.40;;;;;;;;;;726208;189;919452;-66
2021/12/18 07:21:41;;;;;;;12.00;7.53;;;;;;;;;;723022;190;919007;-67
2021/12/18 07:24:07;;;;;;;27.93;8.50;;;;;;;;;;728877;189;919231;-64
2021/12/18 07:26:33;;;;;;;23.63;11.80;;;;;;;;;;731765;186;919015;-67
2021/12/18 07:28:59;;;;;;;51.07;26.83;;;;;;;;;;721856;190;919262;-67
2021/12/18 07:31:24;;;;;;;22.60;11.93;;;;;;;;;;724670;189;1009874;-66
2021/12/18 07:33:51;;;;;;;27.93;13.67;;;;;;;;;;726344;189;919329;-66
2021/12/18 07:36:16;;;;;;;37.80;19.67;;;;;;;;;;721166;190;919076;-66
2021/12/18 07:38:43;;;;;;;47.70;24.03;;;;;;;;;;728034;189;920400;-66
2021/12/18 07:41:08;;;;;;;19.27;11.03;;;;;;;;;;730919;189;920149;-67
2021/12/18 07:43:34;;;;;;;18.60;8.17;;;;;;;;;;731245;189;919706;-66
2021/12/18 07:46:00;;;;;;;15.65;7.85;;;;;;;;;;726341;189;1737228;-66
2021/12/18 07:48:26;;;;;;;11.83;8.20;;;;;;;;;;727190;189;919285;-67
2021/12/18 07:50:52;;;;;;;12.10;9.00;;;;;;;;;;735587;189;917506;-66
2021/12/18 07:53:18;;;;;;;12.60;7.60;;;;;;;;;;730683;189;921842;-66
2021/12/18 07:55:44;;;;;;;17.30;7.80;;;;;;;;;;728378;189;628043;-66
2021/12/18 07:58:10;;;;;;;12.70;7.90;;;;;;;;;;732800;189;907932;-66
2021/12/18 08:00:35;;;;;;;13.27;8.23;;;;;;;;;;730887;189;944042;-66
2021/12/18 08:03:01;;;;;;;11.40;7.77;;;;;;;;;;724723;190;915475;-66
2021/12/18 08:05:27;;;;;;;16.77;7.50;;;;;;;;;;732536;189;916265;-67
2021/12/18 08:07:53;;;;;;;17.83;9.50;;;;;;;;;;728172;186;1016227;-65
2021/12/18 08:10:19;;;;;;;10.97;7.03;;;;;;;;;;729896;189;918771;-66
2021/12/18 08:12:45;;;;;;;15.03;7.23;;;;;;;;;;731107;188;919843;-67
2021/12/18 08:15:10;;;;;;;15.87;7.23;;;;;;;;;;730425;189;919403;-66
2021/12/18 08:17:36;;;;;;;15.27;7.17;;;;;;;;;;731832;186;1228324;-67
2021/12/18 08:20:03;;;;;;;20.53;9.57;;;;;;;;;;725444;189;919865;-67
2021/12/18 08:22:29;;;;;;;19.47;9.10;;;;;;;;;;735669;189;920182;-66
2021/12/18 08:24:55;;;;;;;31.43;14.40;;;;;;;;;;728524;189;1021939;-65
2021/12/18 08:27:20;;;;;;;34.67;20.20;;;;;;;;;;725984;189;919488;-66
2021/12/18 08:29:46;;;;;;;21.60;8.60;;;;;;;;;;732923;190;919198;-67
2021/12/18 08:32:13;;;;;;;37.20;21.10;;;;;;;;;;724600;190;920134;-66
2021/12/18 08:34:39;;;;;;;15.67;7.27;;;;;;;;;;724219;190;919487;-66
2021/12/18 08:37:05;;;;;;;35.33;20.67;;;;;;;;;;728052;192;922881;-65
2021/12/18 08:39:30;;;;;;;37.23;15.33;;;;;;;;;;719804;190;919638;-65
2021/12/18 08:41:58;;;;;;;20.57;11.10;;;;;;;;;;723037;190;919202;-66
2021/12/18 08:44:22;;;;;;;15.40;10.43;;;;;;;;;;721295;192;919267;-67
2021/12/18 08:46:48;;;;;;;26.47;12.33;;;;;;;;;;727781;190;918243;-66
2021/12/18 08:49:15;;;;;;;18.50;12.20;;;;;;;;;;732959;189;919236;-66
2021/12/18 08:51:40;;;;;;;24.27;13.93;;;;;;;;;;725488;190;919422;-66
2021/12/18 08:54:05;;;;;;;16.23;7.70;;;;;;;;;;728164;190;919323;-64
2021/12/18 08:56:31;;;;;;;14.90;7.87;;;;;;;;;;720234;189;919369;-65
2021/12/18 08:59:00;;;;;;;17.62;8.75;;;;;;;;;;722196;190;926850;-63
2021/12/18 09:01:25;;;;;;;29.83;14.47;;;;;;;;;;729220;189;918813;-65
2021/12/18 09:03:49;;;;;;;20.10;16.70;;;;;;;;;;726224;189;919752;-67
2021/12/18 09:06:15;;;;;;;35.50;20.10;;;;;;;;;;726546;189;918697;-66
2021/12/18 09:08:40;;;;;;;29.20;12.50;;;;;;;;;;726133;189;918899;-66
2021/12/18 09:11:06;;;;;;;17.65;11.50;;;;;;;;;;724582;189;922199;-66
2021/12/18 09:13:32;;;;;;;17.40;11.13;;;;;;;;;;729289;189;919451;-64
2021/12/18 09:15:58;;;;;;;25.33;14.37;;;;;;;;;;725237;189;918175;-66
2021/12/18 09:18:24;;;;;;;28.97;18.20;;;;;;;;;;732814;189;918709;-66
2021/12/18 09:20:50;;;;;;;27.20;14.87;;;;;;;;;;723659;189;919564;-66
2021/12/18 09:23:17;;;;;;;45.57;20.13;;;;;;;;;;726691;189;919587;-66
2021/12/18 09:25:41;;;;;;;16.80;10.60;;;;;;;;;;728915;189;919944;-64
2021/12/18 09:28:07;;;;;;;17.67;11.53;;;;;;;;;;722887;189;918772;-66
2021/12/18 09:30:33;;;;;;;24.07;13.43;;;;;;;;;;728390;189;920297;-65
2021/12/18 09:33:00;;;;;;;22.50;10.40;;;;;;;;;;728777;189;920264;-65
2021/12/18 09:35:26;;;;;;;16.33;7.80;;;;;;;;;;721011;189;1021860;-66
2021/12/18 09:37:51;;;;;;;28.60;9.03;;;;;;;;;;725418;189;922892;-66
2021/12/18 09:40:19;;;;;;;15.13;10.00;;;;;;;;;;726396;189;918668;-65
2021/12/18 09:42:44;;;;;;;15.90;8.83;;;;;;;;;;731033;189;918124;-65
2021/12/18 09:45:10;;;;;;;10.80;7.03;;;;;;;;;;726231;189;920379;-66
2021/12/18 09:47:36;;;;;;;12.03;7.47;;;;;;;;;;721847;189;920118;-65
2021/12/18 09:50:03;;;;;;;15.97;8.50;;;;;;;;;;727411;189;920140;-66
2021/12/18 09:52:28;;;;;;;15.90;8.00;;;;;;;;;;723614;189;919076;-66
2021/12/18 09:54:54;;;;;;;10.83;6.97;;;;;;;;;;721757;190;1022017;-65
2021/12/18 09:57:20;;;;;;;11.50;7.40;;;;;;;;;;729700;189;918649;-63
2021/12/18 09:59:46;;;;;;;19.23;7.77;;;;;;;;;;735315;187;919670;-66
2021/12/18 10:02:12;;;;;;;17.87;9.23;;;;;;;;;;733726;187;918714;-65
2021/12/18 10:04:38;;;;;;;17.30;7.22;;;;;;;;;;727251;189;919501;-66
2021/12/18 10:07:22;;;;;;;14.50;6.80;;;;;;;;;;722804;190;919117;-65
2021/12/18 10:09:48;;;;;;;15.02;7.40;;;;;;;;;;734670;189;919181;-65
2021/12/18 10:12:15;;;;;;;15.40;7.80;;;;;;;;;;723048;190;968962;-65
2021/12/18 10:14:41;;;;;;;10.70;6.40;;;;;;;;;;726540;189;919546;-64
2021/12/18 10:17:06;;;;;;;17.30;6.70;;;;;;;;;;732873;189;918696;-65
2021/12/18 10:19:32;;;;;;;15.95;7.32;;;;;;;;;;718991;189;919132;-65
2021/12/18 10:21:59;;;;;;;18.63;7.47;;;;;;;;;;723609;189;925159;-65
2021/12/18 10:24:25;;;;;;;14.30;6.23;;;;;;;;;;727318;191;919077;-66
2021/12/18 10:26:51;;;;;;;11.87;7.17;;;;;;;;;;725814;189;919910;-64
2021/12/18 10:29:21;;;;;;;15.00;6.12;;;;;;;;;;729570;189;919696;-64
2021/12/18 10:31:47;;;;;;;11.87;5.93;;;;;;;;;;725062;189;919243;-64
2021/12/18 10:34:15;;;;;;;19.67;8.93;;;;;;;;;;736168;189;919439;-65
2021/12/18 10:36:41;;;;;;;9.83;6.10;;;;;;;;;;723384;189;920059;-65
2021/12/18 10:39:07;;;;;;;11.60;6.30;;;;;;;;;;731237;189;962991;-65
2021/12/18 10:41:34;;;;;;;13.00;6.37;;;;;;;;;;728146;186;919101;-64
2021/12/18 10:44:01;;;;;;;12.00;5.87;;;;;;;;;;721725;189;919305;-65
2021/12/18 10:46:27;;;;;;;13.00;6.43;;;;;;;;;;726007;189;919380;-64
2021/12/18 10:48:54;;;;;;;12.60;7.03;;;;;;;;;;729722;189;919523;-65
2021/12/18 10:51:22;;;;;;;11.60;6.40;;;;;;;;;;735109;189;919094;-64
2021/12/18 10:53:47;;;;;;;8.70;5.70;;;;;;;;;;727293;189;908399;-66
2021/12/18 10:56:13;;;;;;;10.00;6.50;;;;;;;;;;732233;189;919272;-65
2021/12/18 10:58:39;;;;;;;9.77;5.87;;;;;;;;;;724123;189;920711;-64
2021/12/18 11:01:06;;;;;;;9.97;5.73;;;;;;;;;;738354;189;920015;-64
2021/12/18 11:03:33;;;;;;;15.90;6.83;;;;;;;;;;733703;189;1015891;-65
2021/12/18 11:06:02;;;;;;;13.13;7.40;;;;;;;;;;725303;189;919028;-65
2021/12/18 11:08:28;;;;;;;12.30;7.50;;;;;;;;;;725473;189;919200;-64
2021/12/18 11:13:38;;;;;;;12.13;6.50;;;;;;;;;;723236;189;924557;-65
2021/12/18 11:15:57;;;;;;;12.02;6.95;;;;;;;;;;733001;189;918569;-65
2021/12/18 11:18:23;;;;;;;20.40;6.23;;;;;;;;;;732607;189;920121;-64
2021/12/18 11:20:49;;;;;;;13.10;7.30;;;;;;;;;;725828;189;919413;-65
2021/12/18 11:23:14;;;;;;;13.20;6.30;;;;;;;;;;724206;189;919473;-64
2021/12/18 11:25:41;;;;;;;12.52;6.80;;;;;;;;;;722105;190;919605;-63
2021/12/18 11:28:07;;;;;;;10.60;6.33;;;;;;;;;;721287;192;919636;-64
2021/12/18 11:30:34;;;;;;;10.27;5.97;;;;;;;;;;724454;189;919521;-64
2021/12/18 11:33:00;;;;;;;12.48;7.00;;;;;;;;;;722247;189;919833;-64
2021/12/18 11:35:27;;;;;;;9.40;5.23;;;;;;;;;;731817;189;919377;-64
2021/12/18 11:37:51;;;;;;;13.03;6.63;;;;;;;;;;724327;189;919500;-64
2021/12/18 11:40:17;;;;;;;18.97;7.30;;;;;;;;;;724528;187;919475;-65
2021/12/18 11:42:43;;;;;;;13.30;7.53;;;;;;;;;;733315;189;918655;-67
2021/12/18 11:45:09;;;;;;;14.43;8.03;;;;;;;;;;724900;189;917138;-65
2021/12/18 11:47:36;;;;;;;12.03;6.83;;;;;;;;;;728343;186;920061;-65
2021/12/18 11:50:04;;;;;;;9.90;6.83;;;;;;;;;;721747;189;919463;-64
2021/12/18 11:52:31;;;;;;;11.50;6.60;;;;;;;;;;730730;189;1014465;-65
2021/12/18 11:54:56;;;;;;;16.03;8.33;;;;;;;;;;721417;189;919514;-64
2021/12/18 11:57:28;;;;;;;13.40;6.70;;;;;;;;;;725037;189;919031;-64
2021/12/18 11:59:54;;;;;;;17.27;8.47;;;;;;;;;;727336;189;919559;-65
2021/12/18 12:02:19;;;;;;;15.27;8.93;;;;;;;;;;726751;189;916583;-65
2021/12/18 12:04:52;;;;;;;11.90;8.10;;;;;;;;;;725128;189;918762;-65
2021/12/18 12:07:21;;;;;;;16.33;7.27;;;;;;;;;;724405;189;919549;-65
2021/12/18 12:09:55;;;;;;;16.30;8.13;;;;;;;;;;730297;189;919041;-65
2021/12/18 12:12:13;;;;;;;21.30;8.30;;;;;;;;;;724297;189;921134;-65
2021/12/18 12:14:39;;;;;;;17.10;9.30;;;;;;;;;;725771;189;919917;-64
2021/12/18 12:17:07;;;;;;;15.60;9.83;;;;;;;;;;724266;189;919492;-64
2021/12/18 12:19:42;;;;;;;17.40;9.00;;;;;;;;;;730534;189;907647;-65
2021/12/18 12:22:08;;;;;;;15.50;8.40;;;;;;;;;;722469;189;914445;-65
2021/12/18 12:24:49;;;;;;;18.27;10.23;;;;;;;;;;722903;189;914150;-65
2021/12/18 12:27:16;;;;;;;13.83;8.83;;;;;;;;;;724145;189;917288;-64
2021/12/18 12:29:43;;;;;;;15.90;9.80;;;;;;;;;;724882;189;920159;-64
2021/12/18 12:32:12;;;;;;;18.70;9.40;;;;;;;;;;737260;186;918644;-64
2021/12/18 12:34:35;;;;;;;26.17;9.90;;;;;;;;;;728068;189;919691;-65
2021/12/18 12:37:16;;;;;;;21.30;10.90;;;;;;;;;;724374;189;919215;-65
2021/12/18 12:39:47;;;;;;;18.90;9.33;;;;;;;;;;723774;189;919774;-65
2021/12/18 12:42:13;;;;;;;17.70;10.87;;;;;;;;;;728664;189;919543;-65
2021/12/18 12:44:49;;;;;;;19.95;10.73;;;;;;;;;;724106;189;921796;-65
2021/12/18 12:47:11;;;;;;;20.40;10.00;;;;;;;;;;720640;189;918665;-65
2021/12/18 12:49:37;;;;;;;29.50;10.35;;;;;;;;;;723583;189;919881;-65
2021/12/18 12:52:04;;;;;;;25.53;10.60;;;;;;;;;;732219;189;919186;-65
2021/12/18 12:54:34;;;;;;;18.93;11.43;;;;;;;;;;729386;189;919767;-65
2021/12/18 12:57:06;;;;;;;21.77;10.10;;;;;;;;;;727437;189;919968;-65
2021/12/18 12:59:32;;;;;;;15.53;9.43;;;;;;;;;;725830;189;919528;-63
2021/12/18 13:01:58;;;;;;;22.97;10.77;;;;;;;;;;732998;189;919252;-65
2021/12/18 13:04:24;;;;;;;21.43;11.90;;;;;;;;;;727940;189;919556;-65
2021/12/18 13:06:50;;;;;;;17.77;10.55;;;;;;;;;;726062;189;919991;-65
2021/12/18 13:09:15;;;;;;;17.30;10.00;;;;;;;;;;731422;189;920016;-66
2021/12/18 13:11:42;;;;;;;18.73;10.73;;;;;;;;;;723614;189;919918;-64
2021/12/18 13:14:07;;;;;;;22.80;10.90;;;;;;;;;;724741;189;922694;-64
2021/12/18 13:16:34;;;;;;;20.02;12.27;;;;;;;;;;729328;189;918404;-63
2021/12/18 13:18:59;;;;;;;24.83;12.00;;;;;;;;;;730372;189;919735;-65
2021/12/18 13:21:25;;;;;;;18.57;10.90;;;;;;;;;;726614;189;919253;-64
2021/12/18 13:24:06;;;;;;;16.47;10.43;;;;;;;;;;724262;189;915575;-64
2021/12/18 13:26:38;;;;;;;18.43;10.90;;;;;;;;;;720570;187;915574;-64
2021/12/18 13:29:06;;;;;;;23.45;12.27;;;;;;;;;;731217;189;919464;-65
2021/12/18 13:31:30;;;;;;;20.27;12.40;;;;;;;;;;724290;189;916163;-65
2021/12/18 13:33:56;;;;;;;20.70;12.23;;;;;;;;;;727127;189;919320;-65
2021/12/18 13:36:22;;;;;;;21.17;11.93;;;;;;;;;;729232;189;932911;-63
2021/12/18 13:38:47;;;;;;;22.93;12.20;;;;;;;;;;725980;189;928043;-65
2021/12/18 13:41:14;;;;;;;26.67;12.37;;;;;;;;;;724375;189;925217;-65
2021/12/18 13:43:40;;;;;;;24.17;13.50;;;;;;;;;;724949;189;1018068;-64
2021/12/18 13:46:06;;;;;;;22.90;11.83;;;;;;;;;;731852;189;915527;-65
2021/12/18 13:48:32;;;;;;;19.20;11.93;;;;;;;;;;725804;189;916502;-64
2021/12/18 13:51:13;;;;;;;21.97;11.07;;;;;;;;;;726527;189;914698;-65
2021/12/18 13:53:45;;;;;;;27.02;12.77;;;;;;;;;;724930;189;917514;-64
2021/12/18 13:56:12;;;;;;;24.80;12.20;;;;;;;;;;730161;189;915856;-65
2021/12/18 13:58:38;;;;;;;24.30;11.87;;;;;;;;;;725351;189;916949;-64
2021/12/18 14:01:04;;;;;;;22.53;13.77;;;;;;;;;;723081;189;919736;-65
2021/12/18 14:03:33;;;;;;;23.00;12.97;;;;;;;;;;725371;189;918903;-65
2021/12/18 14:06:00;;;;;;;24.10;12.00;;;;;;;;;;733193;189;918947;-65
2021/12/18 14:08:26;;;;;;;25.60;13.13;;;;;;;;;;726060;189;1021749;-66
2021/12/18 14:10:52;;;;;;;22.40;11.83;;;;;;;;;;722899;189;919742;-64
2021/12/18 14:13:18;;;;;;;25.73;12.60;;;;;;;;;;730368;189;1022046;-65
2021/12/18 14:15:43;;;;;;;22.17;12.97;;;;;;;;;;728364;189;1020901;-65
2021/12/18 14:18:15;;;;;;;28.37;14.67;;;;;;;;;;729681;189;920285;-64
2021/12/18 14:20:46;;;;;;;25.43;15.07;;;;;;;;;;733038;189;919904;-65
2021/12/18 14:23:11;;;;;;;29.63;15.23;;;;;;;;;;724979;189;919524;-65
2021/12/18 14:25:37;;;;;;;32.47;15.85;;;;;;;;;;726379;189;919733;-65
2021/12/18 14:28:03;;;;;;;30.57;15.97;;;;;;;;;;723275;186;919025;-65
2021/12/18 14:30:29;;;;;;;23.90;13.20;;;;;;;;;;726422;190;921981;-65
2021/12/18 14:33:11;;;;;;;26.83;14.00;;;;;;;;;;725460;189;920233;-65
2021/12/18 14:35:52;;;;;;;22.67;13.77;;;;;;;;;;719865;193;919521;-66
2021/12/18 14:38:18;;;;;;;23.67;13.80;;;;;;;;;;734121;189;920210;-65
2021/12/18 14:40:44;;;;;;;25.23;14.57;;;;;;;;;;725034;189;919739;-66
2021/12/18 14:43:16;;;;;;;20.43;11.63;;;;;;;;;;721237;189;919105;-64
2021/12/18 14:45:38;;;;;;;20.07;12.10;;;;;;;;;;730384;189;919106;-66